createdAt,value
2022-09-13T00:00:04.152Z,13.98
2022-09-13T00:05:06.118Z,13.98
2022-09-13T00:10:08.025Z,13.89
2022-09-13T00:15:10.198Z,13.80
2022-09-13T00:20:11.766Z,13.69
2022-09-13T00:25:13.327Z,13.65
2022-09-13T00:30:14.865Z,13.51
2022-09-13T00:35:16.536Z,13.44
2022-09-13T00:40:18.228Z,13.41
2022-09-13T00:45:20.059Z,13.49
2022-09-13T00:50:37.388Z,13.56
2022-09-13T00:55:44.403Z,13.61
2022-09-13T01:00:47.402Z,13.60
2022-09-13T01:06:02.027Z,13.60
2022-09-13T01:11:12.039Z,13.66
2022-09-13T01:16:13.802Z,13.67
2022-09-13T01:21:33.919Z,13.59
2022-09-13T01:26:41.188Z,13.50
2022-09-13T01:31:54.216Z,13.49
2022-09-13T01:37:09.176Z,13.46
2022-09-13T01:42:22.454Z,13.42
2022-09-13T01:47:45.905Z,13.36
2022-09-13T01:53:00.161Z,13.33
2022-09-13T01:58:09.340Z,13.30
2022-09-13T02:03:18.439Z,13.24
2022-09-13T02:08:23.571Z,13.20
2022-09-13T02:13:33.201Z,13.17
2022-09-13T02:18:41.328Z,13.13
2022-09-13T02:23:55.655Z,13.09
2022-09-13T02:29:02.562Z,12.95
2022-09-13T02:34:10.016Z,12.92
2022-09-13T02:39:17.482Z,12.89
2022-09-13T02:44:37.673Z,12.86
2022-09-13T02:49:54.622Z,12.88
2022-09-13T02:55:25.943Z,12.86
2022-09-13T03:00:29.022Z,12.86
2022-09-13T03:05:30.951Z,12.85
2022-09-13T03:10:58.498Z,12.72
2022-09-13T03:16:15.725Z,12.69
2022-09-13T03:21:34.068Z,12.60
2022-09-13T03:26:44.597Z,12.50
2022-09-13T03:32:19.798Z,12.46
2022-09-13T03:37:37.100Z,12.40
2022-09-13T03:42:52.745Z,12.35
2022-09-13T03:47:55.970Z,12.36
2022-09-13T03:53:14.101Z,12.38
2022-09-13T03:58:18.773Z,12.33
2022-09-13T04:03:20.612Z,12.29
2022-09-13T04:08:22.172Z,12.23
2022-09-13T04:13:23.879Z,12.19
2022-09-13T04:18:25.410Z,12.17
2022-09-13T04:23:29.010Z,12.23
2022-09-13T04:28:31.031Z,12.26
2022-09-13T04:33:32.602Z,12.33
2022-09-13T04:38:34.166Z,12.44
2022-09-13T04:43:35.689Z,12.49
2022-09-13T04:48:37.748Z,12.53
2022-09-13T04:53:39.311Z,12.66
2022-09-13T04:58:42.143Z,12.81
2022-09-13T05:03:43.879Z,12.85
2022-09-13T05:08:51.951Z,12.90
2022-09-13T05:13:56.227Z,12.92
2022-09-13T05:18:58.376Z,12.92
2022-09-13T05:24:00.113Z,12.98
2022-09-13T05:29:02.419Z,13.06
2022-09-13T05:34:07.882Z,13.19
2022-09-13T05:44:37.056Z,13.38
2022-09-13T05:49:55.282Z,13.47
2022-09-13T05:55:00.123Z,13.65
2022-09-13T06:00:01.866Z,13.81
2022-09-13T06:05:03.629Z,13.89
2022-09-13T06:10:05.487Z,13.96
2022-09-13T06:15:07.895Z,13.97
2022-09-13T06:20:10.628Z,14.16
2022-09-13T06:25:12.160Z,14.25
2022-09-13T06:30:15.645Z,14.46
2022-09-13T06:35:17.961Z,14.63
2022-09-13T06:40:24.435Z,14.83
2022-09-13T06:45:27.183Z,15.00
2022-09-13T06:50:29.086Z,15.22
2022-09-13T06:55:30.770Z,15.49
2022-09-13T07:00:32.371Z,15.72
2022-09-13T07:05:33.901Z,15.92
2022-09-13T07:10:57.117Z,16.11
2022-09-13T07:16:02.045Z,16.46
2022-09-13T07:21:07.769Z,16.73
2022-09-13T07:26:09.754Z,16.59
2022-09-13T07:31:13.246Z,16.79
2022-09-13T07:36:14.875Z,16.90
2022-09-13T07:41:18.611Z,17.06
2022-09-13T07:46:22.675Z,17.41
2022-09-13T07:51:27.432Z,17.56
2022-09-13T07:56:37.286Z,17.61
2022-09-13T08:01:41.976Z,17.82
2022-09-13T08:06:44.263Z,17.84
2022-09-13T08:11:54.012Z,18.11
2022-09-13T08:16:56.818Z,18.39
2022-09-13T08:21:58.259Z,18.77
2022-09-13T08:26:59.898Z,19.03
2022-09-13T08:32:01.511Z,19.30
2022-09-13T08:37:02.957Z,19.60
2022-09-13T08:42:19.381Z,19.70
2022-09-13T08:47:46.594Z,19.98
2022-09-13T08:52:57.465Z,20.26
2022-09-13T08:58:03.299Z,20.43
2022-09-13T09:03:23.601Z,20.69
2022-09-13T09:08:31.363Z,20.93
2022-09-13T09:13:37.585Z,21.24
2022-09-13T09:18:42.916Z,21.40
2022-09-13T09:23:55.245Z,21.86
2022-09-13T09:29:24.345Z,21.77
2022-09-13T09:34:48.490Z,21.78
2022-09-13T09:39:51.694Z,21.52
2022-09-13T09:44:57.353Z,21.36
2022-09-13T09:50:14.444Z,21.31
2022-09-13T09:55:28.717Z,21.31
2022-09-13T10:00:35.341Z,21.18
2022-09-13T10:05:36.824Z,21.06
2022-09-13T10:10:53.871Z,20.90
2022-09-13T10:15:58.309Z,20.74
2022-09-13T10:21:02.969Z,20.61
2022-09-13T10:26:09.323Z,20.40
2022-09-13T10:31:17.112Z,20.26
2022-09-13T10:36:41.586Z,20.23
2022-09-13T10:41:59.299Z,20.40
2022-09-13T10:47:06.647Z,20.52
2022-09-13T10:52:28.726Z,20.97
2022-09-13T10:57:37.373Z,21.28
2022-09-13T11:03:11.851Z,21.50
2022-09-13T11:08:42.106Z,21.48
2022-09-13T11:14:05.281Z,21.53
2022-09-13T11:19:18.772Z,21.47
2022-09-13T11:24:55.414Z,21.39
2022-09-13T11:30:15.771Z,21.50
2022-09-13T11:35:41.797Z,21.58
2022-09-13T11:40:54.303Z,21.59
2022-09-13T11:46:34.715Z,21.77
2022-09-13T11:52:26.507Z,21.64
2022-09-13T11:57:32.251Z,21.71
2022-09-13T12:02:57.921Z,21.54
2022-09-13T12:08:17.979Z,21.50
2022-09-13T12:13:26.631Z,21.29
2022-09-13T12:18:30.452Z,21.29
2022-09-13T12:23:36.075Z,21.27
2022-09-13T12:28:48.428Z,21.35
2022-09-13T12:33:50.510Z,21.33
2022-09-13T12:39:08.553Z,21.27
2022-09-13T12:44:23.393Z,21.24
2022-09-13T12:49:49.983Z,20.98
2022-09-13T12:55:42.796Z,21.08
2022-09-13T13:00:49.892Z,21.18
2022-09-13T13:05:57.213Z,21.13
2022-09-13T13:11:14.283Z,21.23
2022-09-13T13:16:34.190Z,21.18
2022-09-13T13:21:37.312Z,21.31
2022-09-13T13:26:49.952Z,21.52
2022-09-13T13:31:57.175Z,21.72
2022-09-13T13:37:05.732Z,21.54
2022-09-13T13:42:15.963Z,21.55
2022-09-13T13:47:17.314Z,21.58
2022-09-13T13:53:05.644Z,21.40
2022-09-13T13:58:19.213Z,21.54
2022-09-13T14:03:43.580Z,21.47
2022-09-13T14:09:19.612Z,21.60
2022-09-13T14:14:33.094Z,21.56
2022-09-13T14:19:41.682Z,21.63
2022-09-13T14:24:51.424Z,21.67
2022-09-13T14:29:54.964Z,21.52
2022-09-13T14:35:02.701Z,21.54
2022-09-13T14:40:22.853Z,21.50
2022-09-13T14:45:35.659Z,21.47
2022-09-13T14:50:47.727Z,21.25
2022-09-13T14:56:15.617Z,21.22
2022-09-13T15:01:21.874Z,21.30
2022-09-13T15:06:29.424Z,21.25
2022-09-13T15:11:35.160Z,21.27
2022-09-13T15:16:48.116Z,21.49
2022-09-13T15:21:50.416Z,21.58
2022-09-13T15:27:02.580Z,21.57
2022-09-13T15:32:05.383Z,21.66
2022-09-13T15:37:14.649Z,21.55
2022-09-13T15:42:17.326Z,21.64
2022-09-13T15:47:20.140Z,21.51
2022-09-13T15:52:23.457Z,21.51
2022-09-13T15:57:27.830Z,21.53
2022-09-13T16:02:33.129Z,21.54
2022-09-13T16:07:34.795Z,21.41
2022-09-13T16:12:36.721Z,21.41
2022-09-13T16:17:38.905Z,21.36
2022-09-13T16:22:41.065Z,21.23
2022-09-13T16:27:44.748Z,21.09
2022-09-13T16:32:46.334Z,21.00
2022-09-13T16:37:51.450Z,21.06
2022-09-13T16:42:54.223Z,20.99
2022-09-13T16:47:55.976Z,20.83
2022-09-13T16:52:57.576Z,20.75
2022-09-13T16:57:58.962Z,20.71
2022-09-13T17:03:00.463Z,20.56
2022-09-13T17:08:02.233Z,20.56
2022-09-13T17:13:04.750Z,20.51
2022-09-13T17:18:06.191Z,20.50
2022-09-13T17:23:07.624Z,20.41
2022-09-13T17:28:09.361Z,20.25
2022-09-13T17:33:10.788Z,20.26
2022-09-13T17:38:15.043Z,20.19
2022-09-13T17:43:16.621Z,20.27
2022-09-13T17:48:18.447Z,20.24
2022-09-13T17:53:19.852Z,20.22
2022-09-13T17:58:24.638Z,20.19
2022-09-13T18:03:26.659Z,20.12
2022-09-13T18:08:30.809Z,20.03
2022-09-13T18:13:32.752Z,20.03
2022-09-13T18:18:43.233Z,19.97
2022-09-13T18:23:47.090Z,19.89
2022-09-13T18:28:57.411Z,20.01
2022-09-13T18:34:05.112Z,19.81
2022-09-13T18:39:08.352Z,19.74
2022-09-13T18:44:10.570Z,19.70
2022-09-13T18:49:12.088Z,19.53
2022-09-13T18:54:16.129Z,19.54
2022-09-13T18:59:17.595Z,19.50
2022-09-13T19:04:20.909Z,19.49
2022-09-13T19:09:22.888Z,19.45
2022-09-13T19:14:27.108Z,19.43
2022-09-13T19:19:30.836Z,19.39
2022-09-13T19:24:32.268Z,19.27
2022-09-13T19:29:33.687Z,19.27
2022-09-13T19:34:35.204Z,19.17
2022-09-13T19:39:36.593Z,19.09
2022-09-13T19:44:38.033Z,19.02
2022-09-13T19:49:40.279Z,18.98
2022-09-13T19:54:41.692Z,18.98
2022-09-13T19:59:43.142Z,18.99
2022-09-13T20:04:47.101Z,18.95
2022-09-13T20:09:48.697Z,18.90
2022-09-13T20:14:50.172Z,18.79
2022-09-13T20:19:51.572Z,18.72
2022-09-13T20:24:54.101Z,18.64
2022-09-13T20:29:56.907Z,18.62
2022-09-13T20:34:58.599Z,18.57
2022-09-13T20:40:02.980Z,18.54
2022-09-13T20:45:05.583Z,18.50
2022-09-13T20:50:07.293Z,18.46
2022-09-13T20:55:09.115Z,18.35
2022-09-13T21:00:11.879Z,18.28
2022-09-13T21:05:13.305Z,18.25
2022-09-13T21:10:14.797Z,18.24
2022-09-13T21:15:16.245Z,18.21
2022-09-13T21:20:17.716Z,18.20
2022-09-13T21:25:19.117Z,18.21
2022-09-13T21:30:21.683Z,18.18
2022-09-13T21:35:23.092Z,18.18
2022-09-13T21:40:24.520Z,18.21
2022-09-13T21:45:26.009Z,18.20
2022-09-13T21:50:27.415Z,18.18
2022-09-13T21:55:31.077Z,18.12
2022-09-13T22:00:33.537Z,18.03
2022-09-13T22:05:34.936Z,17.92
2022-09-13T22:10:36.547Z,17.77
2022-09-13T22:15:37.946Z,17.67
2022-09-13T22:20:39.427Z,17.56
2022-09-13T22:25:42.167Z,17.43
2022-09-13T22:30:43.662Z,17.39
2022-09-13T22:35:45.107Z,17.37
2022-09-13T22:40:55.507Z,17.33
2022-09-13T22:46:08.911Z,17.29
2022-09-13T22:51:13.091Z,17.18
2022-09-13T22:56:21.926Z,17.11
2022-09-13T23:01:23.777Z,17.06
2022-09-13T23:06:26.266Z,16.99
2022-09-13T23:11:30.692Z,16.94
2022-09-13T23:16:35.456Z,16.89
2022-09-13T23:21:37.499Z,16.90
2022-09-13T23:26:39.893Z,16.92
2022-09-13T23:31:42.502Z,16.96
2022-09-13T23:36:46.246Z,17.03
2022-09-13T23:41:49.026Z,17.09
2022-09-13T23:46:51.077Z,17.11
2022-09-13T23:51:52.480Z,17.08
2022-09-13T23:56:53.909Z,17.06
